sensor_id;sensor_type;location;lat;lon;timestamp;pressure;altitude;pressure_sealevel;temperature;humidity
67980;BME280;54760;47.490;19.030;2022-11-25T00:00:50;100066.78;;;5.44;80.78
67980;BME280;54760;47.490;19.030;2022-11-25T00:03:16;100059.47;;;5.73;79.57
67980;BME280;54760;47.490;19.030;2022-11-25T00:05:41;100065.66;;;5.73;79.52
67980;BME280;54760;47.490;19.030;2022-11-25T00:08:07;100063.75;;;5.81;79.12
67980;BME280;54760;47.490;19.030;2022-11-25T00:10:32;100068.38;;;5.66;79.41
67980;BME280;54760;47.490;19.030;2022-11-25T00:12:57;100069.16;;;5.77;78.84
67980;BME280;54760;47.490;19.030;2022-11-25T00:15:23;100072.25;;;5.72;79.59
67980;BME280;54760;47.490;19.030;2022-11-25T00:17:48;100068.75;;;5.54;80.54
67980;BME280;54760;47.490;19.030;2022-11-25T00:20:13;100072.62;;;5.67;80.37
67980;BME280;54760;47.490;19.030;2022-11-25T00:22:39;100078.88;;;5.82;79.20
67980;BME280;54760;47.490;19.030;2022-11-25T00:25:05;100075.00;;;5.76;79.44
67980;BME280;54760;47.490;19.030;2022-11-25T00:27:30;100076.94;;;5.79;79.25
67980;BME280;54760;47.490;19.030;2022-11-25T00:29:56;100067.56;;;5.41;80.86
67980;BME280;54760;47.490;19.030;2022-11-25T00:32:21;100077.63;;;5.44;81.01
67980;BME280;54760;47.490;19.030;2022-11-25T00:34:46;100074.13;;;5.40;81.34
67980;BME280;54760;47.490;19.030;2022-11-25T00:37:12;100072.19;;;5.44;81.10
67980;BME280;54760;47.490;19.030;2022-11-25T00:39:37;100070.66;;;5.39;81.18
67980;BME280;54760;47.490;19.030;2022-11-25T00:42:03;100078.81;;;5.46;81.08
67980;BME280;54760;47.490;19.030;2022-11-25T00:44:46;100079.19;;;5.41;81.17
67980;BME280;54760;47.490;19.030;2022-11-25T00:47:17;100075.69;;;5.41;81.13
67980;BME280;54760;47.490;19.030;2022-11-25T00:49:48;100092.41;;;5.46;80.84
67980;BME280;54760;47.490;19.030;2022-11-25T00:52:16;100086.56;;;5.44;81.21
67980;BME280;54760;47.490;19.030;2022-11-25T00:54:41;100092.03;;;5.51;80.89
67980;BME280;54760;47.490;19.030;2022-11-25T00:57:09;100092.81;;;5.52;80.88
67980;BME280;54760;47.490;19.030;2022-11-25T00:59:35;100100.50;;;5.32;81.78
67980;BME280;54760;47.490;19.030;2022-11-25T01:02:00;100093.81;;;5.15;82.85
67980;BME280;54760;47.490;19.030;2022-11-25T01:04:25;100098.16;;;5.27;82.12
67980;BME280;54760;47.490;19.030;2022-11-25T01:06:51;100112.81;;;5.15;82.73
67980;BME280;54760;47.490;19.030;2022-11-25T01:09:18;100104.06;;;5.61;80.88
67980;BME280;54760;47.490;19.030;2022-11-25T01:11:43;100105.97;;;5.50;80.73
67980;BME280;54760;47.490;19.030;2022-11-25T01:14:10;100110.16;;;5.30;82.44
67980;BME280;54760;47.490;19.030;2022-11-25T01:16:35;100116.75;;;5.25;82.27
67980;BME280;54760;47.490;19.030;2022-11-25T01:19:01;100112.19;;;5.47;81.21
67980;BME280;54760;47.490;19.030;2022-11-25T01:21:30;100116.38;;;5.30;81.66
67980;BME280;54760;47.490;19.030;2022-11-25T01:23:58;100117.66;;;5.61;80.39
67980;BME280;54760;47.490;19.030;2022-11-25T01:26:24;100119.91;;;5.45;80.78
67980;BME280;54760;47.490;19.030;2022-11-25T01:29:04;100118.34;;;5.44;81.03
67980;BME280;54760;47.490;19.030;2022-11-25T01:31:32;100120.75;;;5.56;79.92
67980;BME280;54760;47.490;19.030;2022-11-25T01:34:01;100118.41;;;5.51;79.79
67980;BME280;54760;47.490;19.030;2022-11-25T01:36:27;100113.38;;;5.56;79.63
67980;BME280;54760;47.490;19.030;2022-11-25T01:38:55;100114.94;;;5.61;79.41
67980;BME280;54760;47.490;19.030;2022-11-25T01:41:22;100116.06;;;5.53;79.54
67980;BME280;54760;47.490;19.030;2022-11-25T01:44:21;100115.28;;;5.52;80.01
67980;BME280;54760;47.490;19.030;2022-11-25T01:46:51;100118.37;;;5.47;79.90
67980;BME280;54760;47.490;19.030;2022-11-25T01:51:54;100121.38;;;5.24;81.33
67980;BME280;54760;47.490;19.030;2022-11-25T01:54:24;100131.41;;;5.13;81.98
67980;BME280;54760;47.490;19.030;2022-11-25T01:57:04;100127.97;;;5.16;82.13
67980;BME280;54760;47.490;19.030;2022-11-25T01:59:32;100132.56;;;5.09;82.53
67980;BME280;54760;47.490;19.030;2022-11-25T02:02:00;100149.88;;;4.83;84.08
67980;BME280;54760;47.490;19.030;2022-11-25T02:04:30;100149.03;;;4.79;84.57
67980;BME280;54760;47.490;19.030;2022-11-25T02:07:02;100141.66;;;4.69;84.88
67980;BME280;54760;47.490;19.030;2022-11-25T02:09:28;100137.22;;;4.50;86.01
67980;BME280;54760;47.490;19.030;2022-11-25T02:11:55;100141.47;;;5.06;83.78
67980;BME280;54760;47.490;19.030;2022-11-25T02:14:21;100147.75;;;5.24;82.48
67980;BME280;54760;47.490;19.030;2022-11-25T02:16:47;100134.59;;;5.26;82.10
67980;BME280;54760;47.490;19.030;2022-11-25T02:19:45;100141.16;;;5.21;81.43
67980;BME280;54760;47.490;19.030;2022-11-25T02:22:25;100127.47;;;5.00;82.83
67980;BME280;54760;47.490;19.030;2022-11-25T02:24:57;100135.37;;;5.27;81.11
67980;BME280;54760;47.490;19.030;2022-11-25T02:27:27;100141.47;;;5.09;82.18
67980;BME280;54760;47.490;19.030;2022-11-25T02:29:53;100147.59;;;4.96;82.80
67980;BME280;54760;47.490;19.030;2022-11-25T02:32:21;100152.31;;;5.02;82.72
67980;BME280;54760;47.490;19.030;2022-11-25T02:34:48;100146.22;;;5.30;81.61
67980;BME280;54760;47.490;19.030;2022-11-25T02:37:14;100139.59;;;5.20;81.73
67980;BME280;54760;47.490;19.030;2022-11-25T02:39:41;100146.16;;;5.12;82.15
67980;BME280;54760;47.490;19.030;2022-11-25T02:42:07;100138.44;;;5.25;81.16
67980;BME280;54760;47.490;19.030;2022-11-25T02:44:32;100138.87;;;5.31;80.73
67980;BME280;54760;47.490;19.030;2022-11-25T02:46:57;100138.19;;;5.62;79.55
67980;BME280;54760;47.490;19.030;2022-11-25T02:49:23;100140.31;;;5.03;81.04
67980;BME280;54760;47.490;19.030;2022-11-25T02:51:48;100149.50;;;4.88;82.74
67980;BME280;54760;47.490;19.030;2022-11-25T02:54:14;100139.97;;;5.15;81.54
67980;BME280;54760;47.490;19.030;2022-11-25T02:56:40;100143.88;;;5.21;80.90
67980;BME280;54760;47.490;19.030;2022-11-25T02:59:06;100143.75;;;5.00;81.76
67980;BME280;54760;47.490;19.030;2022-11-25T03:01:32;100140.34;;;5.14;81.27
67980;BME280;54760;47.490;19.030;2022-11-25T03:03:59;100145.03;;;5.17;80.71
67980;BME280;54760;47.490;19.030;2022-11-25T03:06:25;100148.81;;;4.98;81.95
67980;BME280;54760;47.490;19.030;2022-11-25T03:08:50;100148.38;;;4.96;82.76
67980;BME280;54760;47.490;19.030;2022-11-25T03:11:16;100148.34;;;4.89;83.05
67980;BME280;54760;47.490;19.030;2022-11-25T03:13:41;100150.88;;;5.22;81.25
67980;BME280;54760;47.490;19.030;2022-11-25T03:16:06;100163.44;;;4.87;82.13
67980;BME280;54760;47.490;19.030;2022-11-25T03:18:33;100159.37;;;5.24;80.80
67980;BME280;54760;47.490;19.030;2022-11-25T03:20:58;100153.03;;;4.99;81.38
67980;BME280;54760;47.490;19.030;2022-11-25T03:23:24;100163.53;;;5.01;81.44
67980;BME280;54760;47.490;19.030;2022-11-25T03:25:50;100166.44;;;4.74;83.04
67980;BME280;54760;47.490;19.030;2022-11-25T03:28:15;100179.09;;;4.53;83.90
67980;BME280;54760;47.490;19.030;2022-11-25T03:30:41;100177.84;;;4.43;84.72
67980;BME280;54760;47.490;19.030;2022-11-25T03:33:07;100183.84;;;4.70;83.41
67980;BME280;54760;47.490;19.030;2022-11-25T03:35:32;100186.13;;;4.61;83.77
67980;BME280;54760;47.490;19.030;2022-11-25T03:37:58;100200.34;;;4.51;84.47
67980;BME280;54760;47.490;19.030;2022-11-25T03:40:23;100198.69;;;4.83;82.94
67980;BME280;54760;47.490;19.030;2022-11-25T03:42:49;100202.00;;;4.59;83.90
67980;BME280;54760;47.490;19.030;2022-11-25T03:45:15;100199.31;;;4.66;83.25
67980;BME280;54760;47.490;19.030;2022-11-25T03:47:41;100198.97;;;4.71;82.90
67980;BME280;54760;47.490;19.030;2022-11-25T03:50:09;100204.59;;;4.45;84.09
67980;BME280;54760;47.490;19.030;2022-11-25T03:52:35;100205.28;;;4.34;85.26
67980;BME280;54760;47.490;19.030;2022-11-25T03:55:00;100212.41;;;4.53;84.83
67980;BME280;54760;47.490;19.030;2022-11-25T03:57:26;100214.13;;;4.75;83.19
67980;BME280;54760;47.490;19.030;2022-11-25T03:59:51;100214.38;;;4.60;83.14
67980;BME280;54760;47.490;19.030;2022-11-25T04:02:16;100225.06;;;4.90;81.55
67980;BME280;54760;47.490;19.030;2022-11-25T04:04:42;100219.56;;;4.79;81.83
67980;BME280;54760;47.490;19.030;2022-11-25T04:07:07;100225.47;;;4.88;81.00
67980;BME280;54760;47.490;19.030;2022-11-25T04:09:33;100226.63;;;4.87;81.61
67980;BME280;54760;47.490;19.030;2022-11-25T04:11:58;100225.09;;;4.46;83.68
67980;BME280;54760;47.490;19.030;2022-11-25T04:14:42;100226.97;;;4.34;84.83
67980;BME280;54760;47.490;19.030;2022-11-25T04:17:07;100225.72;;;4.28;85.00
67980;BME280;54760;47.490;19.030;2022-11-25T04:19:33;100229.34;;;4.06;86.51
67980;BME280;54760;47.490;19.030;2022-11-25T04:21:58;100235.72;;;4.65;83.35
67980;BME280;54760;47.490;19.030;2022-11-25T04:24:25;100230.37;;;4.72;83.57
67980;BME280;54760;47.490;19.030;2022-11-25T04:26:51;100235.53;;;4.88;82.10
67980;BME280;54760;47.490;19.030;2022-11-25T04:29:16;100244.59;;;5.09;81.56
67980;BME280;54760;47.490;19.030;2022-11-25T04:31:41;100242.28;;;5.08;81.13
67980;BME280;54760;47.490;19.030;2022-11-25T04:34:07;100240.72;;;5.10;79.96
67980;BME280;54760;47.490;19.030;2022-11-25T04:36:32;100240.22;;;4.94;80.26
67980;BME280;54760;47.490;19.030;2022-11-25T04:38:57;100247.50;;;4.83;80.87
67980;BME280;54760;47.490;19.030;2022-11-25T04:41:23;100242.47;;;4.85;80.80
67980;BME280;54760;47.490;19.030;2022-11-25T04:43:48;100248.09;;;4.62;81.57
67980;BME280;54760;47.490;19.030;2022-11-25T04:46:20;100247.56;;;4.90;80.22
67980;BME280;54760;47.490;19.030;2022-11-25T04:48:47;100253.06;;;5.04;79.76
67980;BME280;54760;47.490;19.030;2022-11-25T04:51:12;100255.91;;;4.67;81.27
67980;BME280;54760;47.490;19.030;2022-11-25T04:53:38;100252.00;;;4.65;81.79
67980;BME280;54760;47.490;19.030;2022-11-25T04:56:03;100256.50;;;4.50;82.65
67980;BME280;54760;47.490;19.030;2022-11-25T04:58:29;100260.44;;;4.56;82.90
67980;BME280;54760;47.490;19.030;2022-11-25T05:01:13;100280.06;;;4.83;81.27
67980;BME280;54760;47.490;19.030;2022-11-25T05:03:38;100275.94;;;4.56;82.40
67980;BME280;54760;47.490;19.030;2022-11-25T05:06:08;100285.50;;;4.43;83.20
67980;BME280;54760;47.490;19.030;2022-11-25T05:08:34;100299.97;;;4.57;82.83
67980;BME280;54760;47.490;19.030;2022-11-25T05:10:59;100299.62;;;5.10;80.51
67980;BME280;54760;47.490;19.030;2022-11-25T05:13:25;100297.41;;;4.75;81.14
67980;BME280;54760;47.490;19.030;2022-11-25T05:15:50;100293.16;;;4.74;80.70
67980;BME280;54760;47.490;19.030;2022-11-25T05:18:16;100304.59;;;4.57;81.34
67980;BME280;54760;47.490;19.030;2022-11-25T05:20:41;100315.81;;;4.55;81.16
67980;BME280;54760;47.490;19.030;2022-11-25T05:23:07;100309.31;;;4.63;81.43
67980;BME280;54760;47.490;19.030;2022-11-25T05:25:32;100310.63;;;4.80;80.46
67980;BME280;54760;47.490;19.030;2022-11-25T05:27:57;100313.81;;;4.89;80.29
67980;BME280;54760;47.490;19.030;2022-11-25T05:30:23;100313.66;;;4.71;81.09
67980;BME280;54760;47.490;19.030;2022-11-25T05:32:48;100318.84;;;4.47;82.48
67980;BME280;54760;47.490;19.030;2022-11-25T05:35:14;100321.69;;;4.61;81.63
67980;BME280;54760;47.490;19.030;2022-11-25T05:37:39;100327.22;;;4.71;81.81
67980;BME280;54760;47.490;19.030;2022-11-25T05:40:05;100331.03;;;4.67;80.81
67980;BME280;54760;47.490;19.030;2022-11-25T05:42:30;100328.50;;;4.85;79.57
67980;BME280;54760;47.490;19.030;2022-11-25T05:44:56;100325.84;;;4.92;79.23
67980;BME280;54760;47.490;19.030;2022-11-25T05:47:21;100325.84;;;4.92;78.65
67980;BME280;54760;47.490;19.030;2022-11-25T05:49:46;100333.13;;;4.84;79.08
67980;BME280;54760;47.490;19.030;2022-11-25T05:52:12;100331.87;;;4.74;79.61
67980;BME280;54760;47.490;19.030;2022-11-25T05:54:37;100336.81;;;5.02;78.64
67980;BME280;54760;47.490;19.030;2022-11-25T05:57:03;100332.31;;;4.76;80.24
67980;BME280;54760;47.490;19.030;2022-11-25T05:59:28;100346.91;;;5.05;78.85
67980;BME280;54760;47.490;19.030;2022-11-25T06:01:53;100350.19;;;4.85;79.59
67980;BME280;54760;47.490;19.030;2022-11-25T06:04:19;100348.91;;;4.71;81.09
67980;BME280;54760;47.490;19.030;2022-11-25T06:06:44;100359.91;;;4.89;80.03
67980;BME280;54760;47.490;19.030;2022-11-25T06:09:09;100367.09;;;4.71;80.58
67980;BME280;54760;47.490;19.030;2022-11-25T06:11:35;100366.00;;;4.75;81.12
67980;BME280;54760;47.490;19.030;2022-11-25T06:14:00;100375.56;;;4.62;82.18
67980;BME280;54760;47.490;19.030;2022-11-25T06:16:26;100372.59;;;5.18;78.97
67980;BME280;54760;47.490;19.030;2022-11-25T06:18:52;100384.78;;;4.58;81.02
67980;BME280;54760;47.490;19.030;2022-11-25T06:21:18;100381.44;;;4.68;81.85
67980;BME280;54760;47.490;19.030;2022-11-25T06:23:43;100382.78;;;4.51;82.14
67980;BME280;54760;47.490;19.030;2022-11-25T06:26:20;100383.84;;;4.80;80.69
67980;BME280;54760;47.490;19.030;2022-11-25T06:28:46;100390.13;;;4.51;82.95
67980;BME280;54760;47.490;19.030;2022-11-25T06:31:16;100396.28;;;4.14;84.94
67980;BME280;54760;47.490;19.030;2022-11-25T06:33:47;100393.00;;;4.02;86.04
67980;BME280;54760;47.490;19.030;2022-11-25T06:36:13;100397.84;;;4.15;85.59
67980;BME280;54760;47.490;19.030;2022-11-25T06:38:45;100397.31;;;4.36;84.30
67980;BME280;54760;47.490;19.030;2022-11-25T06:41:11;100392.38;;;4.78;82.77
67980;BME280;54760;47.490;19.030;2022-11-25T06:43:37;100397.31;;;5.10;81.40
67980;BME280;54760;47.490;19.030;2022-11-25T06:46:13;100392.19;;;5.42;80.12
67980;BME280;54760;47.490;19.030;2022-11-25T06:48:39;100399.13;;;4.95;80.78
67980;BME280;54760;47.490;19.030;2022-11-25T06:51:10;100408.00;;;4.89;81.50
67980;BME280;54760;47.490;19.030;2022-11-25T06:53:36;100406.84;;;5.34;79.84
67980;BME280;54760;47.490;19.030;2022-11-25T06:58:31;100417.75;;;5.37;80.40
67980;BME280;54760;47.490;19.030;2022-11-25T07:01:04;100424.81;;;5.49;78.79
67980;BME280;54760;47.490;19.030;2022-11-25T07:03:31;100419.38;;;5.49;78.45
67980;BME280;54760;47.490;19.030;2022-11-25T07:05:57;100424.13;;;5.15;79.83
67980;BME280;54760;47.490;19.030;2022-11-25T07:08:24;100428.41;;;5.16;80.95
67980;BME280;54760;47.490;19.030;2022-11-25T07:10:50;100420.53;;;5.04;81.90
67980;BME280;54760;47.490;19.030;2022-11-25T07:13:16;100424.88;;;5.12;81.94
67980;BME280;54760;47.490;19.030;2022-11-25T07:15:41;100427.84;;;5.00;82.45
67980;BME280;54760;47.490;19.030;2022-11-25T07:18:07;100430.78;;;4.84;82.99
67980;BME280;54760;47.490;19.030;2022-11-25T07:20:32;100432.84;;;5.38;80.84
67980;BME280;54760;47.490;19.030;2022-11-25T07:22:57;100432.88;;;4.98;82.29
67980;BME280;54760;47.490;19.030;2022-11-25T07:25:23;100443.00;;;5.45;81.10
67980;BME280;54760;47.490;19.030;2022-11-25T07:27:48;100446.87;;;5.44;80.02
67980;BME280;54760;47.490;19.030;2022-11-25T07:30:14;100450.16;;;5.67;79.08
67980;BME280;54760;47.490;19.030;2022-11-25T07:32:40;100439.94;;;5.97;78.10
67980;BME280;54760;47.490;19.030;2022-11-25T07:35:05;100443.50;;;6.08;78.09
67980;BME280;54760;47.490;19.030;2022-11-25T07:37:31;100442.00;;;5.67;79.19
67980;BME280;54760;47.490;19.030;2022-11-25T07:39:56;100445.00;;;5.99;78.16
67980;BME280;54760;47.490;19.030;2022-11-25T07:42:22;100447.09;;;6.27;77.34
67980;BME280;54760;47.490;19.030;2022-11-25T07:44:47;100448.72;;;6.35;76.68
67980;BME280;54760;47.490;19.030;2022-11-25T07:47:13;100447.00;;;6.13;76.85
67980;BME280;54760;47.490;19.030;2022-11-25T07:49:38;100437.63;;;6.03;77.69
67980;BME280;54760;47.490;19.030;2022-11-25T07:52:04;100438.62;;;6.39;76.38
67980;BME280;54760;47.490;19.030;2022-11-25T07:54:29;100436.13;;;6.09;77.42
67980;BME280;54760;47.490;19.030;2022-11-25T07:56:56;100442.12;;;6.43;76.12
67980;BME280;54760;47.490;19.030;2022-11-25T07:59:22;100432.53;;;6.77;75.08
67980;BME280;54760;47.490;19.030;2022-11-25T08:01:56;100439.19;;;6.87;74.74
67980;BME280;54760;47.490;19.030;2022-11-25T08:04:22;100447.63;;;6.57;75.68
67980;BME280;54760;47.490;19.030;2022-11-25T08:06:49;100440.34;;;6.79;74.75
67980;BME280;54760;47.490;19.030;2022-11-25T08:09:17;100448.81;;;6.67;74.46
67980;BME280;54760;47.490;19.030;2022-11-25T08:11:44;100445.00;;;6.78;74.73
67980;BME280;54760;47.490;19.030;2022-11-25T08:14:10;100445.78;;;6.82;74.43
67980;BME280;54760;47.490;19.030;2022-11-25T08:16:36;100451.19;;;6.75;74.19
67980;BME280;54760;47.490;19.030;2022-11-25T08:19:06;100455.47;;;6.80;73.84
67980;BME280;54760;47.490;19.030;2022-11-25T08:21:32;100451.19;;;6.68;74.03
67980;BME280;54760;47.490;19.030;2022-11-25T08:23:57;100453.59;;;7.05;73.46
67980;BME280;54760;47.490;19.030;2022-11-25T08:26:25;100463.69;;;6.90;73.53
67980;BME280;54760;47.490;19.030;2022-11-25T08:28:52;100459.06;;;7.16;73.26
67980;BME280;54760;47.490;19.030;2022-11-25T08:31:20;100459.03;;;7.02;74.31
67980;BME280;54760;47.490;19.030;2022-11-25T08:33:47;100467.09;;;6.70;75.38
67980;BME280;54760;47.490;19.030;2022-11-25T08:36:14;100471.37;;;6.67;75.97
67980;BME280;54760;47.490;19.030;2022-11-25T08:38:40;100467.84;;;6.60;76.30
67980;BME280;54760;47.490;19.030;2022-11-25T08:41:12;100472.16;;;6.75;75.30
67980;BME280;54760;47.490;19.030;2022-11-25T08:43:38;100472.16;;;6.75;75.42
67980;BME280;54760;47.490;19.030;2022-11-25T08:46:09;100459.78;;;6.95;74.47
67980;BME280;54760;47.490;19.030;2022-11-25T08:48:35;100466.03;;;6.92;74.85
67980;BME280;54760;47.490;19.030;2022-11-25T08:51:01;100465.25;;;6.91;75.34
67980;BME280;54760;47.490;19.030;2022-11-25T08:53:30;100472.66;;;7.02;74.50
67980;BME280;54760;47.490;19.030;2022-11-25T08:55:56;100477.28;;;6.87;75.29
67980;BME280;54760;47.490;19.030;2022-11-25T08:58:21;100467.59;;;6.96;75.36
67980;BME280;54760;47.490;19.030;2022-11-25T09:00:47;100470.75;;;7.13;74.40
67980;BME280;54760;47.490;19.030;2022-11-25T09:03:12;100466.88;;;7.21;73.97
67980;BME280;54760;47.490;19.030;2022-11-25T09:05:39;100462.59;;;7.27;73.19
67980;BME280;54760;47.490;19.030;2022-11-25T09:08:07;100454.47;;;7.62;71.98
67980;BME280;54760;47.490;19.030;2022-11-25T09:10:33;100461.44;;;7.84;70.64
67980;BME280;54760;47.490;19.030;2022-11-25T09:12:59;100463.78;;;7.86;71.07
67980;BME280;54760;47.490;19.030;2022-11-25T09:15:25;100459.81;;;8.22;70.03
67980;BME280;54760;47.490;19.030;2022-11-25T09:17:59;100461.38;;;8.23;70.25
67980;BME280;54760;47.490;19.030;2022-11-25T09:20:25;100466.06;;;8.12;70.59
67980;BME280;54760;47.490;19.030;2022-11-25T09:22:50;100459.06;;;8.18;70.13
67980;BME280;54760;47.490;19.030;2022-11-25T09:25:16;100465.25;;;8.26;70.37
67980;BME280;54760;47.490;19.030;2022-11-25T09:27:41;100464.47;;;8.36;70.06
67980;BME280;54760;47.490;19.030;2022-11-25T09:30:07;100463.69;;;8.50;69.38
67980;BME280;54760;47.490;19.030;2022-11-25T09:32:32;100464.41;;;8.64;68.96
67980;BME280;54760;47.490;19.030;2022-11-25T09:34:58;100462.16;;;8.35;69.74
67980;BME280;54760;47.490;19.030;2022-11-25T09:37:23;100460.59;;;8.37;69.54
67980;BME280;54760;47.490;19.030;2022-11-25T09:39:48;100461.69;;;8.57;69.17
67980;BME280;54760;47.490;19.030;2022-11-25T09:42:30;100456.97;;;8.65;68.80
67980;BME280;54760;47.490;19.030;2022-11-25T09:45:21;100458.56;;;8.62;69.16
67980;BME280;54760;47.490;19.030;2022-11-25T09:56:17;100444.91;;;8.69;68.36
67980;BME280;54760;47.490;19.030;2022-11-25T09:58:51;100444.09;;;8.65;69.03
67980;BME280;54760;47.490;19.030;2022-11-25T10:01:21;100443.44;;;8.40;69.26
67980;BME280;54760;47.490;19.030;2022-11-25T10:03:55;100443.41;;;8.47;69.49
67980;BME280;54760;47.490;19.030;2022-11-25T10:06:25;100446.75;;;8.80;68.58
67980;BME280;54760;47.490;19.030;2022-11-25T10:08:58;100447.09;;;8.92;68.30
67980;BME280;54760;47.490;19.030;2022-11-25T10:13:56;100440.34;;;9.18;67.51
67980;BME280;54760;47.490;19.030;2022-11-25T10:21:41;100448.84;;;9.27;66.74
67980;BME280;54760;47.490;19.030;2022-11-25T10:24:12;100444.91;;;9.32;66.26
67980;BME280;54760;47.490;19.030;2022-11-25T10:26:41;100443.47;;;9.09;67.18
67980;BME280;54760;47.490;19.030;2022-11-25T10:31:41;100449.06;;;9.50;66.23
67980;BME280;54760;47.490;19.030;2022-11-25T10:34:38;100456.19;;;9.37;66.30
67980;BME280;54760;47.490;19.030;2022-11-25T10:37:11;100439.34;;;9.46;65.76
67980;BME280;54760;47.490;19.030;2022-11-25T10:39:38;100449.19;;;9.36;65.77
67980;BME280;54760;47.490;19.030;2022-11-25T10:42:10;100448.50;;;9.70;65.14
67980;BME280;54760;47.490;19.030;2022-11-25T10:44:40;100441.91;;;9.64;64.69
67980;BME280;54760;47.490;19.030;2022-11-25T10:47:35;100439.28;;;9.53;65.56
67980;BME280;54760;47.490;19.030;2022-11-25T10:55:33;100443.44;;;9.72;64.29
67980;BME280;54760;47.490;19.030;2022-11-25T10:58:19;100444.81;;;9.90;64.54
67980;BME280;54760;47.490;19.030;2022-11-25T11:01:21;100445.50;;;9.98;64.73
67980;BME280;54760;47.490;19.030;2022-11-25T11:03:51;100451.41;;;9.96;64.67
67980;BME280;54760;47.490;19.030;2022-11-25T11:06:38;100456.06;;;9.99;64.71
67980;BME280;54760;47.490;19.030;2022-11-25T11:09:04;100454.00;;;10.07;64.04
67980;BME280;54760;47.490;19.030;2022-11-25T11:11:30;100452.19;;;9.93;64.56
67980;BME280;54760;47.490;19.030;2022-11-25T11:14:11;100455.53;;;10.15;64.04
67980;BME280;54760;47.490;19.030;2022-11-25T11:16:41;100460.56;;;9.76;64.89
67980;BME280;54760;47.490;19.030;2022-11-25T11:19:26;100456.22;;;9.82;64.75
67980;BME280;54760;47.490;19.030;2022-11-25T11:21:53;100460.59;;;10.17;64.48
67980;BME280;54760;47.490;19.030;2022-11-25T11:27:22;100459.16;;;10.42;62.86
67980;BME280;54760;47.490;19.030;2022-11-25T11:30:07;100458.81;;;10.71;62.39
67980;BME280;54760;47.490;19.030;2022-11-25T11:32:32;100449.22;;;10.56;62.36
67980;BME280;54760;47.490;19.030;2022-11-25T11:35:15;100454.63;;;10.93;61.88
67980;BME280;54760;47.490;19.030;2022-11-25T11:37:48;100446.03;;;10.91;61.75
67980;BME280;54760;47.490;19.030;2022-11-25T11:40:42;100453.91;;;10.89;61.69
67980;BME280;54760;47.490;19.030;2022-11-25T11:47:03;100454.31;;;11.14;61.58
67980;BME280;54760;47.490;19.030;2022-11-25T11:49:43;100446.53;;;11.09;62.69
67980;BME280;54760;47.490;19.030;2022-11-25T11:56:04;100453.06;;;10.92;63.03
67980;BME280;54760;47.490;19.030;2022-11-25T12:00:44;100450.19;;;10.72;63.92
67980;BME280;54760;47.490;19.030;2022-11-25T12:03:17;100446.91;;;11.11;63.35
67980;BME280;54760;47.490;19.030;2022-11-25T12:05:46;100440.00;;;11.03;62.94
67980;BME280;54760;47.490;19.030;2022-11-25T12:08:33;100441.84;;;10.83;63.67
67980;BME280;54760;47.490;19.030;2022-11-25T12:11:10;100439.03;;;11.90;61.00
67980;BME280;54760;47.490;19.030;2022-11-25T12:13:51;100447.13;;;12.40;59.28
67980;BME280;54760;47.490;19.030;2022-11-25T12:16:49;100443.72;;;12.72;58.03
67980;BME280;54760;47.490;19.030;2022-11-25T12:19:43;100446.38;;;14.09;54.12
67980;BME280;54760;47.490;19.030;2022-11-25T12:22:37;100449.00;;;15.24;50.51
67980;BME280;54760;47.490;19.030;2022-11-25T12:25:12;100441.72;;;16.24;47.79
67980;BME280;54760;47.490;19.030;2022-11-25T12:28:19;100432.88;;;16.73;46.02
67980;BME280;54760;47.490;19.030;2022-11-25T12:31:17;100434.69;;;17.28;45.29
67980;BME280;54760;47.490;19.030;2022-11-25T12:36:42;100443.72;;;16.02;46.61
67980;BME280;54760;47.490;19.030;2022-11-25T12:39:19;100444.91;;;16.01;46.20
67980;BME280;54760;47.490;19.030;2022-11-25T12:41:56;100432.38;;;16.96;44.28
67980;BME280;54760;47.490;19.030;2022-11-25T12:47:18;100428.75;;;17.57;42.33
67980;BME280;54760;47.490;19.030;2022-11-25T12:49:52;100427.44;;;18.35;41.12
67980;BME280;54760;47.490;19.030;2022-11-25T12:55:12;100436.84;;;18.10;41.59
67980;BME280;54760;47.490;19.030;2022-11-25T12:58:01;100433.00;;;17.98;41.45
67980;BME280;54760;47.490;19.030;2022-11-25T13:17:08;100449.63;;;13.91;53.16
67980;BME280;54760;47.490;19.030;2022-11-25T13:19:36;100442.53;;;13.09;54.92
67980;BME280;54760;47.490;19.030;2022-11-25T13:24:56;100434.50;;;12.63;56.19
67980;BME280;54760;47.490;19.030;2022-11-25T13:27:48;100430.78;;;12.53;56.83
67980;BME280;54760;47.490;19.030;2022-11-25T13:30:37;100440.28;;;12.68;56.65
67980;BME280;54760;47.490;19.030;2022-11-25T13:35:48;100441.47;;;12.28;57.75
67980;BME280;54760;47.490;19.030;2022-11-25T13:46:58;100452.72;;;12.13;57.85
67980;BME280;54760;47.490;19.030;2022-11-25T13:52:19;100457.22;;;11.54;59.62
67980;BME280;54760;47.490;19.030;2022-11-25T13:54:48;100470.53;;;11.82;58.92
67980;BME280;54760;47.490;19.030;2022-11-25T13:57:24;100470.84;;;12.07;58.41
67980;BME280;54760;47.490;19.030;2022-11-25T13:59:53;100477.28;;;12.21;58.63
67980;BME280;54760;47.490;19.030;2022-11-25T14:22:02;100489.09;;;12.41;58.42
67980;BME280;54760;47.490;19.030;2022-11-25T14:24:39;100490.59;;;12.42;58.34
67980;BME280;54760;47.490;19.030;2022-11-25T14:27:20;100491.84;;;12.18;58.49
67980;BME280;54760;47.490;19.030;2022-11-25T14:29:52;100500.50;;;12.16;58.42
67980;BME280;54760;47.490;19.030;2022-11-25T14:32:23;100501.50;;;12.02;60.34
67980;BME280;54760;47.490;19.030;2022-11-25T14:35:00;100498.53;;;11.93;61.17
67980;BME280;54760;47.490;19.030;2022-11-25T14:37:50;100497.34;;;12.18;60.79
67980;BME280;54760;47.490;19.030;2022-11-25T14:40:33;100496.16;;;11.95;61.99
67980;BME280;54760;47.490;19.030;2022-11-25T14:43:11;100501.87;;;11.81;62.94